sensor_id;sensor_type;location;lat;lon;timestamp;temperature;humidity
71627;DHT22;59475;52.464;13.590;2023-04-24T00:00:20;9.09;92.76
71627;DHT22;59475;52.464;13.590;2023-04-24T00:02:45;9.06;92.99
71627;DHT22;59475;52.464;13.590;2023-04-24T00:05:13;9.06;92.93
71627;DHT22;59475;52.464;13.590;2023-04-24T00:07:39;9.00;92.91
71627;DHT22;59475;52.464;13.590;2023-04-24T00:10:05;9.02;93.27
71627;DHT22;59475;52.464;13.590;2023-04-24T00:12:31;9.02;93.36
71627;DHT22;59475;52.464;13.590;2023-04-24T00:14:56;8.99;93.49
71627;DHT22;59475;52.464;13.590;2023-04-24T00:17:22;9.02;93.66
71627;DHT22;59475;52.464;13.590;2023-04-24T00:19:48;9.00;93.80
71627;DHT22;59475;52.464;13.590;2023-04-24T00:22:13;8.98;93.83
71627;DHT22;59475;52.464;13.590;2023-04-24T00:24:40;8.99;93.66
71627;DHT22;59475;52.464;13.590;2023-04-24T00:27:05;9.00;93.75
71627;DHT22;59475;52.464;13.590;2023-04-24T00:29:31;9.02;93.74
71627;DHT22;59475;52.464;13.590;2023-04-24T00:31:56;8.98;93.62
71627;DHT22;59475;52.464;13.590;2023-04-24T00:34:22;8.93;93.55
71627;DHT22;59475;52.464;13.590;2023-04-24T00:36:47;8.89;93.60
71627;DHT22;59475;52.464;13.590;2023-04-24T00:39:15;8.91;93.50
71627;DHT22;59475;52.464;13.590;2023-04-24T00:41:41;8.91;93.71
71627;DHT22;59475;52.464;13.590;2023-04-24T00:44:07;8.88;93.81
71627;DHT22;59475;52.464;13.590;2023-04-24T00:46:32;8.88;93.87
71627;DHT22;59475;52.464;13.590;2023-04-24T00:48:59;8.86;93.78
71627;DHT22;59475;52.464;13.590;2023-04-24T00:51:24;8.85;94.09
71627;DHT22;59475;52.464;13.590;2023-04-24T00:53:50;8.85;94.35
71627;DHT22;59475;52.464;13.590;2023-04-24T00:56:16;8.85;94.08
71627;DHT22;59475;52.464;13.590;2023-04-24T00:58:42;8.82;94.08
71627;DHT22;59475;52.464;13.590;2023-04-24T01:01:09;8.81;94.60
71627;DHT22;59475;52.464;13.590;2023-04-24T01:03:35;8.79;94.51
71627;DHT22;59475;52.464;13.590;2023-04-24T01:06:02;8.82;94.65
71627;DHT22;59475;52.464;13.590;2023-04-24T01:08:28;8.82;94.74
71627;DHT22;59475;52.464;13.590;2023-04-24T01:10:55;8.86;94.98
71627;DHT22;59475;52.464;13.590;2023-04-24T01:13:22;8.91;95.30
71627;DHT22;59475;52.464;13.590;2023-04-24T01:15:48;9.03;96.23
71627;DHT22;59475;52.464;13.590;2023-04-24T01:18:14;9.06;95.92
71627;DHT22;59475;52.464;13.590;2023-04-24T01:20:40;9.15;96.01
71627;DHT22;59475;52.464;13.590;2023-04-24T01:23:07;9.26;96.49
71627;DHT22;59475;52.464;13.590;2023-04-24T01:25:33;9.38;96.60
71627;DHT22;59475;52.464;13.590;2023-04-24T01:27:59;9.48;96.76
71627;DHT22;59475;52.464;13.590;2023-04-24T01:30:25;9.57;96.83
71627;DHT22;59475;52.464;13.590;2023-04-24T01:32:51;9.71;96.64
71627;DHT22;59475;52.464;13.590;2023-04-24T01:35:17;9.74;96.44
71627;DHT22;59475;52.464;13.590;2023-04-24T01:37:42;9.84;96.30
71627;DHT22;59475;52.464;13.590;2023-04-24T01:40:08;9.88;96.14
71627;DHT22;59475;52.464;13.590;2023-04-24T01:42:34;9.91;96.01
71627;DHT22;59475;52.464;13.590;2023-04-24T01:45:00;9.96;95.91
71627;DHT22;59475;52.464;13.590;2023-04-24T01:47:27;9.95;96.04
71627;DHT22;59475;52.464;13.590;2023-04-24T01:49:52;9.98;96.08
71627;DHT22;59475;52.464;13.590;2023-04-24T01:52:18;9.99;95.86
71627;DHT22;59475;52.464;13.590;2023-04-24T01:54:44;9.99;95.92
71627;DHT22;59475;52.464;13.590;2023-04-24T01:57:10;10.01;95.70
71627;DHT22;59475;52.464;13.590;2023-04-24T01:59:36;9.96;95.64
71627;DHT22;59475;52.464;13.590;2023-04-24T02:02:02;10.01;95.80
71627;DHT22;59475;52.464;13.590;2023-04-24T02:04:28;10.02;95.79
71627;DHT22;59475;52.464;13.590;2023-04-24T02:06:53;9.99;95.80
71627;DHT22;59475;52.464;13.590;2023-04-24T02:09:19;9.99;95.64
71627;DHT22;59475;52.464;13.590;2023-04-24T02:11:45;9.98;95.64
71627;DHT22;59475;52.464;13.590;2023-04-24T02:14:10;9.98;95.59
71627;DHT22;59475;52.464;13.590;2023-04-24T02:16:35;9.95;95.55
71627;DHT22;59475;52.464;13.590;2023-04-24T02:19:01;9.96;95.54
71627;DHT22;59475;52.464;13.590;2023-04-24T02:21:27;9.92;95.79
71627;DHT22;59475;52.464;13.590;2023-04-24T02:23:53;9.91;95.70
71627;DHT22;59475;52.464;13.590;2023-04-24T02:26:18;9.85;95.90
71627;DHT22;59475;52.464;13.590;2023-04-24T02:28:44;9.85;96.22
71627;DHT22;59475;52.464;13.590;2023-04-24T02:31:09;9.88;96.20
71627;DHT22;59475;52.464;13.590;2023-04-24T02:33:35;9.89;96.22
71627;DHT22;59475;52.464;13.590;2023-04-24T02:36:01;9.89;96.55
71627;DHT22;59475;52.464;13.590;2023-04-24T02:38:28;9.98;96.73
71627;DHT22;59475;52.464;13.590;2023-04-24T02:40:53;10.02;96.56
71627;DHT22;59475;52.464;13.590;2023-04-24T02:43:19;10.02;96.61
71627;DHT22;59475;52.464;13.590;2023-04-24T02:45:44;10.05;96.68
71627;DHT22;59475;52.464;13.590;2023-04-24T02:48:09;10.08;96.66
71627;DHT22;59475;52.464;13.590;2023-04-24T02:50:35;10.09;96.76
71627;DHT22;59475;52.464;13.590;2023-04-24T02:53:00;10.13;96.66
71627;DHT22;59475;52.464;13.590;2023-04-24T02:55:25;10.14;96.77
71627;DHT22;59475;52.464;13.590;2023-04-24T02:57:51;10.20;96.94
71627;DHT22;59475;52.464;13.590;2023-04-24T03:00:16;10.29;97.05
71627;DHT22;59475;52.464;13.590;2023-04-24T03:02:42;10.34;96.85
71627;DHT22;59475;52.464;13.590;2023-04-24T03:05:07;10.40;96.74
71627;DHT22;59475;52.464;13.590;2023-04-24T03:07:34;10.43;96.59
71627;DHT22;59475;52.464;13.590;2023-04-24T03:09:59;10.50;96.48
71627;DHT22;59475;52.464;13.590;2023-04-24T03:12:25;10.53;96.45
71627;DHT22;59475;52.464;13.590;2023-04-24T03:14:50;10.58;96.36
71627;DHT22;59475;52.464;13.590;2023-04-24T03:17:16;10.63;96.17
71627;DHT22;59475;52.464;13.590;2023-04-24T03:19:41;10.67;96.10
71627;DHT22;59475;52.464;13.590;2023-04-24T03:22:06;10.71;95.90
71627;DHT22;59475;52.464;13.590;2023-04-24T03:24:34;10.72;95.93
71627;DHT22;59475;52.464;13.590;2023-04-24T03:26:59;10.74;95.87
71627;DHT22;59475;52.464;13.590;2023-04-24T03:29:25;10.77;95.89
71627;DHT22;59475;52.464;13.590;2023-04-24T03:31:50;10.85;95.65
71627;DHT22;59475;52.464;13.590;2023-04-24T03:34:16;10.85;95.58
71627;DHT22;59475;52.464;13.590;2023-04-24T03:36:41;10.88;95.48
71627;DHT22;59475;52.464;13.590;2023-04-24T03:39:06;10.95;95.33
71627;DHT22;59475;52.464;13.590;2023-04-24T03:41:32;10.96;95.21
71627;DHT22;59475;52.464;13.590;2023-04-24T03:43:58;11.01;95.14
71627;DHT22;59475;52.464;13.590;2023-04-24T03:46:23;11.01;95.19
71627;DHT22;59475;52.464;13.590;2023-04-24T03:48:49;10.99;95.15
71627;DHT22;59475;52.464;13.590;2023-04-24T03:51:14;10.98;95.16
71627;DHT22;59475;52.464;13.590;2023-04-24T03:53:40;10.95;95.21
71627;DHT22;59475;52.464;13.590;2023-04-24T03:56:05;10.99;95.23
71627;DHT22;59475;52.464;13.590;2023-04-24T03:58:31;10.98;95.33
71627;DHT22;59475;52.464;13.590;2023-04-24T04:00:56;10.99;95.36
71627;DHT22;59475;52.464;13.590;2023-04-24T04:03:23;11.02;95.17
71627;DHT22;59475;52.464;13.590;2023-04-24T04:05:49;11.04;95.07
71627;DHT22;59475;52.464;13.590;2023-04-24T04:08:14;11.05;94.97
71627;DHT22;59475;52.464;13.590;2023-04-24T04:10:40;11.09;94.93
71627;DHT22;59475;52.464;13.590;2023-04-24T04:13:05;11.12;94.80
71627;DHT22;59475;52.464;13.590;2023-04-24T04:15:31;11.16;94.53
71627;DHT22;59475;52.464;13.590;2023-04-24T04:17:57;11.16;94.51
71627;DHT22;59475;52.464;13.590;2023-04-24T04:20:22;11.18;94.46
71627;DHT22;59475;52.464;13.590;2023-04-24T04:22:48;11.22;94.36
71627;DHT22;59475;52.464;13.590;2023-04-24T04:25:13;11.20;94.20
71627;DHT22;59475;52.464;13.590;2023-04-24T04:27:39;11.23;94.08
71627;DHT22;59475;52.464;13.590;2023-04-24T04:30:07;11.22;94.37
71627;DHT22;59475;52.464;13.590;2023-04-24T04:32:36;11.26;94.27
71627;DHT22;59475;52.464;13.590;2023-04-24T04:35:02;11.25;94.21
71627;DHT22;59475;52.464;13.590;2023-04-24T04:37:29;11.26;94.07
71627;DHT22;59475;52.464;13.590;2023-04-24T04:39:54;11.30;93.81
71627;DHT22;59475;52.464;13.590;2023-04-24T04:42:20;11.34;93.75
71627;DHT22;59475;52.464;13.590;2023-04-24T04:44:45;11.39;93.51
71627;DHT22;59475;52.464;13.590;2023-04-24T04:47:11;11.44;93.15
71627;DHT22;59475;52.464;13.590;2023-04-24T04:49:38;11.50;92.96
71627;DHT22;59475;52.464;13.590;2023-04-24T04:52:04;11.57;92.51
71627;DHT22;59475;52.464;13.590;2023-04-24T04:54:29;11.63;92.49
71627;DHT22;59475;52.464;13.590;2023-04-24T04:56:54;11.64;92.47
71627;DHT22;59475;52.464;13.590;2023-04-24T04:59:20;11.66;92.39
71627;DHT22;59475;52.464;13.590;2023-04-24T05:01:46;11.71;91.98
71627;DHT22;59475;52.464;13.590;2023-04-24T05:04:11;11.77;91.65
71627;DHT22;59475;52.464;13.590;2023-04-24T05:06:37;11.82;91.30
71627;DHT22;59475;52.464;13.590;2023-04-24T05:09:02;11.84;91.33
71627;DHT22;59475;52.464;13.590;2023-04-24T05:11:28;11.95;90.53
71627;DHT22;59475;52.464;13.590;2023-04-24T05:13:55;11.98;90.62
71627;DHT22;59475;52.464;13.590;2023-04-24T05:16:20;12.06;90.13
71627;DHT22;59475;52.464;13.590;2023-04-24T05:18:46;12.09;90.47
71627;DHT22;59475;52.464;13.590;2023-04-24T05:21:12;12.12;90.12
71627;DHT22;59475;52.464;13.590;2023-04-24T05:23:37;12.09;90.26
71627;DHT22;59475;52.464;13.590;2023-04-24T05:26:02;12.15;90.10
71627;DHT22;59475;52.464;13.590;2023-04-24T05:28:28;12.18;89.55
71627;DHT22;59475;52.464;13.590;2023-04-24T05:30:54;12.24;89.86
71627;DHT22;59475;52.464;13.590;2023-04-24T05:33:21;12.28;89.36
71627;DHT22;59475;52.464;13.590;2023-04-24T05:35:47;12.35;89.06
71627;DHT22;59475;52.464;13.590;2023-04-24T05:38:13;12.42;88.80
71627;DHT22;59475;52.464;13.590;2023-04-24T05:40:39;12.50;88.31
71627;DHT22;59475;52.464;13.590;2023-04-24T05:43:05;12.57;88.02
71627;DHT22;59475;52.464;13.590;2023-04-24T05:45:30;12.67;87.64
71627;DHT22;59475;52.464;13.590;2023-04-24T05:47:55;12.71;87.40
71627;DHT22;59475;52.464;13.590;2023-04-24T05:50:21;12.77;86.66
71627;DHT22;59475;52.464;13.590;2023-04-24T05:52:46;12.80;86.55
71627;DHT22;59475;52.464;13.590;2023-04-24T05:55:12;12.90;86.34
71627;DHT22;59475;52.464;13.590;2023-04-24T05:57:38;13.04;85.67
71627;DHT22;59475;52.464;13.590;2023-04-24T06:00:04;13.21;84.43
71627;DHT22;59475;52.464;13.590;2023-04-24T06:02:30;13.28;84.16
71627;DHT22;59475;52.464;13.590;2023-04-24T06:04:58;13.25;83.79
71627;DHT22;59475;52.464;13.590;2023-04-24T06:07:25;13.25;83.83
71627;DHT22;59475;52.464;13.590;2023-04-24T06:09:51;13.35;83.58
71627;DHT22;59475;52.464;13.590;2023-04-24T06:12:17;13.32;83.00
71627;DHT22;59475;52.464;13.590;2023-04-24T06:14:42;13.35;83.02
71627;DHT22;59475;52.464;13.590;2023-04-24T06:17:08;13.42;82.85
71627;DHT22;59475;52.464;13.590;2023-04-24T06:19:33;13.56;82.34
71627;DHT22;59475;52.464;13.590;2023-04-24T06:21:59;13.70;81.68
71627;DHT22;59475;52.464;13.590;2023-04-24T06:24:28;13.95;81.45
71627;DHT22;59475;52.464;13.590;2023-04-24T06:26:53;14.21;79.70
71627;DHT22;59475;52.464;13.590;2023-04-24T06:29:19;14.22;79.27
71627;DHT22;59475;52.464;13.590;2023-04-24T06:31:44;14.12;79.37
71627;DHT22;59475;52.464;13.590;2023-04-24T06:34:10;14.10;79.25
71627;DHT22;59475;52.464;13.590;2023-04-24T06:36:35;14.03;79.74
71627;DHT22;59475;52.464;13.590;2023-04-24T06:39:01;14.00;79.84
71627;DHT22;59475;52.464;13.590;2023-04-24T06:41:26;14.05;79.16
71627;DHT22;59475;52.464;13.590;2023-04-24T06:43:52;14.26;79.36
71627;DHT22;59475;52.464;13.590;2023-04-24T06:46:17;14.63;78.43
71627;DHT22;59475;52.464;13.590;2023-04-24T06:48:43;14.97;75.85
71627;DHT22;59475;52.464;13.590;2023-04-24T06:51:08;15.32;74.64
71627;DHT22;59475;52.464;13.590;2023-04-24T06:53:34;15.63;72.94
71627;DHT22;59475;52.464;13.590;2023-04-24T06:56:00;15.49;72.08
71627;DHT22;59475;52.464;13.590;2023-04-24T06:58:25;16.01;72.24
71627;DHT22;59475;52.464;13.590;2023-04-24T07:00:51;16.29;70.20
71627;DHT22;59475;52.464;13.590;2023-04-24T07:03:16;16.41;69.26
71627;DHT22;59475;52.464;13.590;2023-04-24T07:05:41;16.47;68.94
71627;DHT22;59475;52.464;13.590;2023-04-24T07:08:07;16.64;68.13
71627;DHT22;59475;52.464;13.590;2023-04-24T07:10:36;16.59;68.65
71627;DHT22;59475;52.464;13.590;2023-04-24T07:13:02;16.61;67.43
71627;DHT22;59475;52.464;13.590;2023-04-24T07:15:27;17.03;67.12
71627;DHT22;59475;52.464;13.590;2023-04-24T07:17:53;17.40;66.06
71627;DHT22;59475;52.464;13.590;2023-04-24T07:20:18;17.65;65.63
71627;DHT22;59475;52.464;13.590;2023-04-24T07:22:43;18.06;63.68
71627;DHT22;59475;52.464;13.590;2023-04-24T07:25:09;18.27;62.40
71627;DHT22;59475;52.464;13.590;2023-04-24T07:27:35;18.76;62.78
71627;DHT22;59475;52.464;13.590;2023-04-24T07:30:02;19.03;61.68
71627;DHT22;59475;52.464;13.590;2023-04-24T07:32:27;19.10;59.26
71627;DHT22;59475;52.464;13.590;2023-04-24T07:34:52;19.20;59.53
71627;DHT22;59475;52.464;13.590;2023-04-24T07:37:18;19.19;58.83
71627;DHT22;59475;52.464;13.590;2023-04-24T07:39:43;19.40;58.38
71627;DHT22;59475;52.464;13.590;2023-04-24T07:42:09;19.30;59.46
71627;DHT22;59475;52.464;13.590;2023-04-24T07:44:34;18.79;57.15
71627;DHT22;59475;52.464;13.590;2023-04-24T07:47:01;18.62;58.62
71627;DHT22;59475;52.464;13.590;2023-04-24T07:49:26;18.34;59.89
71627;DHT22;59475;52.464;13.590;2023-04-24T07:51:53;18.41;60.29
71627;DHT22;59475;52.464;13.590;2023-04-24T07:54:18;18.73;58.54
71627;DHT22;59475;52.464;13.590;2023-04-24T07:56:44;19.00;57.99
71627;DHT22;59475;52.464;13.590;2023-04-24T07:59:10;19.23;57.44
71627;DHT22;59475;52.464;13.590;2023-04-24T08:01:36;19.58;54.66
71627;DHT22;59475;52.464;13.590;2023-04-24T08:04:01;20.02;54.33
71627;DHT22;59475;52.464;13.590;2023-04-24T08:06:27;19.93;54.60
71627;DHT22;59475;52.464;13.590;2023-04-24T08:08:57;19.61;55.64
71627;DHT22;59475;52.464;13.590;2023-04-24T08:11:23;19.31;55.47
71627;DHT22;59475;52.464;13.590;2023-04-24T08:13:48;19.05;56.91
71627;DHT22;59475;52.464;13.590;2023-04-24T08:16:14;18.57;58.56
71627;DHT22;59475;52.464;13.590;2023-04-24T08:18:39;18.33;59.66
71627;DHT22;59475;52.464;13.590;2023-04-24T08:21:05;18.47;59.63
71627;DHT22;59475;52.464;13.590;2023-04-24T08:23:30;18.24;59.03
71627;DHT22;59475;52.464;13.590;2023-04-24T08:25:55;18.64;58.63
71627;DHT22;59475;52.464;13.590;2023-04-24T08:28:21;18.88;57.42
71627;DHT22;59475;52.464;13.590;2023-04-24T08:30:47;19.16;56.16
71627;DHT22;59475;52.464;13.590;2023-04-24T08:33:14;19.19;56.20
71627;DHT22;59475;52.464;13.590;2023-04-24T08:35:39;19.00;54.61
71627;DHT22;59475;52.464;13.590;2023-04-24T08:38:05;19.44;53.73
71627;DHT22;59475;52.464;13.590;2023-04-24T08:40:34;19.81;53.30
71627;DHT22;59475;52.464;13.590;2023-04-24T08:43:00;20.02;52.57
71627;DHT22;59475;52.464;13.590;2023-04-24T08:45:26;19.99;51.87
71627;DHT22;59475;52.464;13.590;2023-04-24T08:47:53;20.54;51.45
71627;DHT22;59475;52.464;13.590;2023-04-24T08:50:20;20.48;50.39
71627;DHT22;59475;52.464;13.590;2023-04-24T08:52:47;19.89;50.52
71627;DHT22;59475;52.464;13.590;2023-04-24T08:55:12;19.05;52.57
71627;DHT22;59475;52.464;13.590;2023-04-24T08:57:39;19.17;53.52
71627;DHT22;59475;52.464;13.590;2023-04-24T09:00:06;19.70;53.01
71627;DHT22;59475;52.464;13.590;2023-04-24T09:02:31;19.53;51.93
71627;DHT22;59475;52.464;13.590;2023-04-24T09:05:00;19.61;53.22
71627;DHT22;59475;52.464;13.590;2023-04-24T09:07:27;19.78;52.11
71627;DHT22;59475;52.464;13.590;2023-04-24T09:09:53;19.40;53.28
71627;DHT22;59475;52.464;13.590;2023-04-24T09:12:19;19.15;54.63
71627;DHT22;59475;52.464;13.590;2023-04-24T09:14:45;19.17;54.93
71627;DHT22;59475;52.464;13.590;2023-04-24T09:17:11;19.10;55.45
71627;DHT22;59475;52.464;13.590;2023-04-24T09:19:37;19.26;55.79
71627;DHT22;59475;52.464;13.590;2023-04-24T09:22:06;18.98;54.26
71627;DHT22;59475;52.464;13.590;2023-04-24T09:24:33;18.65;55.92
71627;DHT22;59475;52.464;13.590;2023-04-24T09:26:58;18.65;57.52
71627;DHT22;59475;52.464;13.590;2023-04-24T09:29:24;18.48;57.00
71627;DHT22;59475;52.464;13.590;2023-04-24T09:31:50;18.41;58.28
71627;DHT22;59475;52.464;13.590;2023-04-24T09:34:23;18.04;57.12
71627;DHT22;59475;52.464;13.590;2023-04-24T09:36:49;18.04;57.13
71627;DHT22;59475;52.464;13.590;2023-04-24T09:39:17;18.00;57.80
71627;DHT22;59475;52.464;13.590;2023-04-24T09:44:41;17.35;58.10
71627;DHT22;59475;52.464;13.590;2023-04-24T09:47:08;17.19;60.13
71627;DHT22;59475;52.464;13.590;2023-04-24T09:49:34;16.99;61.95
71627;DHT22;59475;52.464;13.590;2023-04-24T09:52:06;16.80;63.15
71627;DHT22;59475;52.464;13.590;2023-04-24T09:54:32;16.80;63.50
71627;DHT22;59475;52.464;13.590;2023-04-24T09:56:58;16.99;64.14
71627;DHT22;59475;52.464;13.590;2023-04-24T09:59:25;17.17;63.46
71627;DHT22;59475;52.464;13.590;2023-04-24T10:01:50;17.32;63.07
71627;DHT22;59475;52.464;13.590;2023-04-24T10:04:25;17.54;62.90
71627;DHT22;59475;52.464;13.590;2023-04-24T10:06:52;17.71;61.35
71627;DHT22;59475;52.464;13.590;2023-04-24T10:09:20;17.74;60.67
71627;DHT22;59475;52.464;13.590;2023-04-24T10:11:49;17.93;60.26
71627;DHT22;59475;52.464;13.590;2023-04-24T10:14:17;17.72;59.23
71627;DHT22;59475;52.464;13.590;2023-04-24T10:16:43;17.66;60.08
71627;DHT22;59475;52.464;13.590;2023-04-24T10:19:10;17.51;59.37
71627;DHT22;59475;52.464;13.590;2023-04-24T10:21:36;17.37;60.18
71627;DHT22;59475;52.464;13.590;2023-04-24T10:24:10;17.38;60.35
71627;DHT22;59475;52.464;13.590;2023-04-24T10:26:36;17.31;60.71
71627;DHT22;59475;52.464;13.590;2023-04-24T10:29:05;17.30;60.79
71627;DHT22;59475;52.464;13.590;2023-04-24T10:31:35;17.37;60.30
71627;DHT22;59475;52.464;13.590;2023-04-24T10:34:02;17.32;61.35
71627;DHT22;59475;52.464;13.590;2023-04-24T10:36:28;17.72;61.50
71627;DHT22;59475;52.464;13.590;2023-04-24T10:38:56;17.97;60.86
71627;DHT22;59475;52.464;13.590;2023-04-24T10:41:25;18.30;59.43
71627;DHT22;59475;52.464;13.590;2023-04-24T10:44:10;18.85;59.33
71627;DHT22;59475;52.464;13.590;2023-04-24T10:46:37;18.88;57.64
71627;DHT22;59475;52.464;13.590;2023-04-24T10:49:06;18.36;57.96
71627;DHT22;59475;52.464;13.590;2023-04-24T10:51:53;17.85;59.01
71627;DHT22;59475;52.464;13.590;2023-04-24T10:54:33;17.82;59.68
71627;DHT22;59475;52.464;13.590;2023-04-24T11:00:09;17.86;60.01
71627;DHT22;59475;52.464;13.590;2023-04-24T11:02:39;18.02;59.73
71627;DHT22;59475;52.464;13.590;2023-04-24T11:05:06;18.09;59.71
71627;DHT22;59475;52.464;13.590;2023-04-24T11:10:38;17.93;59.15
71627;DHT22;59475;52.464;13.590;2023-04-24T11:13:04;18.26;58.01
71627;DHT22;59475;52.464;13.590;2023-04-24T11:15:29;18.72;55.67
71627;DHT22;59475;52.464;13.590;2023-04-24T11:17:55;19.02;55.68
71627;DHT22;59475;52.464;13.590;2023-04-24T11:20:23;19.43;54.20
71627;DHT22;59475;52.464;13.590;2023-04-24T11:22:52;19.95;52.68
71627;DHT22;59475;52.464;13.590;2023-04-24T11:25:21;19.83;52.74
71627;DHT22;59475;52.464;13.590;2023-04-24T11:27:47;20.44;52.77
71627;DHT22;59475;52.464;13.590;2023-04-24T11:30:19;20.36;50.72
71627;DHT22;59475;52.464;13.590;2023-04-24T11:32:48;20.05;51.75
71627;DHT22;59475;52.464;13.590;2023-04-24T11:35:19;19.51;52.55
71627;DHT22;59475;52.464;13.590;2023-04-24T11:37:46;18.92;54.23
71627;DHT22;59475;52.464;13.590;2023-04-24T11:40:15;18.31;55.74
71627;DHT22;59475;52.464;13.590;2023-04-24T11:42:45;17.82;57.91
71627;DHT22;59475;52.464;13.590;2023-04-24T11:45:13;17.03;64.63
71627;DHT22;59475;52.464;13.590;2023-04-24T11:47:39;15.89;76.10
71627;DHT22;59475;52.464;13.590;2023-04-24T11:50:07;15.18;78.97
71627;DHT22;59475;52.464;13.590;2023-04-24T11:52:37;14.97;80.22
71627;DHT22;59475;52.464;13.590;2023-04-24T11:55:03;14.83;81.99
71627;DHT22;59475;52.464;13.590;2023-04-24T11:57:29;14.83;82.86
71627;DHT22;59475;52.464;13.590;2023-04-24T11:59:59;15.07;82.60
71627;DHT22;59475;52.464;13.590;2023-04-24T12:02:26;15.35;80.45
71627;DHT22;59475;52.464;13.590;2023-04-24T12:04:54;15.80;83.19
71627;DHT22;59475;52.464;13.590;2023-04-24T12:07:20;16.06;80.08
71627;DHT22;59475;52.464;13.590;2023-04-24T12:09:48;16.14;79.49
71627;DHT22;59475;52.464;13.590;2023-04-24T12:12:15;16.22;78.63
71627;DHT22;59475;52.464;13.590;2023-04-24T12:14:54;16.47;77.38
71627;DHT22;59475;52.464;13.590;2023-04-24T12:19:51;16.34;75.46
71627;DHT22;59475;52.464;13.590;2023-04-24T12:22:16;16.28;77.42
71627;DHT22;59475;52.464;13.590;2023-04-24T12:27:22;16.34;76.78
71627;DHT22;59475;52.464;13.590;2023-04-24T12:29:52;16.34;75.58
71627;DHT22;59475;52.464;13.590;2023-04-24T12:32:18;16.18;75.01
71627;DHT22;59475;52.464;13.590;2023-04-24T12:34:44;16.18;75.34
71627;DHT22;59475;52.464;13.590;2023-04-24T12:37:11;16.32;76.39
71627;DHT22;59475;52.464;13.590;2023-04-24T12:39:37;16.47;72.01
71627;DHT22;59475;52.464;13.590;2023-04-24T12:42:03;16.52;71.79
71627;DHT22;59475;52.464;13.590;2023-04-24T12:44:33;16.76;72.27
71627;DHT22;59475;52.464;13.590;2023-04-24T12:47:00;16.90;64.75
71627;DHT22;59475;52.464;13.590;2023-04-24T12:49:26;17.07;64.13
71627;DHT22;59475;52.464;13.590;2023-04-24T12:51:51;17.45;63.80
71627;DHT22;59475;52.464;13.590;2023-04-24T12:54:17;17.68;60.51
71627;DHT22;59475;52.464;13.590;2023-04-24T12:56:42;17.66;59.47
71627;DHT22;59475;52.464;13.590;2023-04-24T12:59:08;17.52;57.30
71627;DHT22;59475;52.464;13.590;2023-04-24T13:01:33;17.68;57.36
71627;DHT22;59475;52.464;13.590;2023-04-24T13:03:58;17.75;54.40
71627;DHT22;59475;52.464;13.590;2023-04-24T13:06:24;17.86;51.74
71627;DHT22;59475;52.464;13.590;2023-04-24T13:08:51;18.16;50.18
71627;DHT22;59475;52.464;13.590;2023-04-24T13:11:16;18.52;49.90
71627;DHT22;59475;52.464;13.590;2023-04-24T13:13:42;18.64;48.66
71627;DHT22;59475;52.464;13.590;2023-04-24T13:16:07;18.71;48.41
71627;DHT22;59475;52.464;13.590;2023-04-24T13:18:32;18.54;48.17
71627;DHT22;59475;52.464;13.590;2023-04-24T13:20:58;18.31;49.12
71627;DHT22;59475;52.464;13.590;2023-04-24T13:23:23;18.34;50.53
71627;DHT22;59475;52.464;13.590;2023-04-24T13:25:49;18.31;48.00
71627;DHT22;59475;52.464;13.590;2023-04-24T13:28:15;18.55;47.82
71627;DHT22;59475;52.464;13.590;2023-04-24T13:30:41;18.79;47.33
71627;DHT22;59475;52.464;13.590;2023-04-24T13:33:06;18.88;45.84
71627;DHT22;59475;52.464;13.590;2023-04-24T13:35:31;18.51;47.02
71627;DHT22;59475;52.464;13.590;2023-04-24T13:37:57;18.17;46.65
71627;DHT22;59475;52.464;13.590;2023-04-24T13:40:23;18.22;46.30
71627;DHT22;59475;52.464;13.590;2023-04-24T13:42:49;18.12;46.04
71627;DHT22;59475;52.464;13.590;2023-04-24T13:45:14;18.14;45.12
71627;DHT22;59475;52.464;13.590;2023-04-24T13:47:39;17.99;44.78
71627;DHT22;59475;52.464;13.590;2023-04-24T13:50:07;18.09;46.60
71627;DHT22;59475;52.464;13.590;2023-04-24T13:52:33;18.43;46.05
71627;DHT22;59475;52.464;13.590;2023-04-24T13:54:59;18.64;45.35
71627;DHT22;59475;52.464;13.590;2023-04-24T13:57:24;18.79;43.44
71627;DHT22;59475;52.464;13.590;2023-04-24T13:59:50;18.73;42.58
71627;DHT22;59475;52.464;13.590;2023-04-24T14:02:15;18.72;44.18
71627;DHT22;59475;52.464;13.590;2023-04-24T14:04:40;18.85;44.35
71627;DHT22;59475;52.464;13.590;2023-04-24T14:07:06;18.68;43.31
71627;DHT22;59475;52.464;13.590;2023-04-24T14:09:33;18.44;43.83
71627;DHT22;59475;52.464;13.590;2023-04-24T14:11:58;18.33;43.96
71627;DHT22;59475;52.464;13.590;2023-04-24T14:14:24;17.93;43.63
71627;DHT22;59475;52.464;13.590;2023-04-24T14:16:49;18.04;44.99
71627;DHT22;59475;52.464;13.590;2023-04-24T14:19:15;18.10;43.87
71627;DHT22;59475;52.464;13.590;2023-04-24T14:21:40;18.06;44.03
71627;DHT22;59475;52.464;13.590;2023-04-24T14:24:06;18.09;43.50
71627;DHT22;59475;52.464;13.590;2023-04-24T14:26:31;18.07;43.39
71627;DHT22;59475;52.464;13.590;2023-04-24T14:28:57;18.03;43.49
71627;DHT22;59475;52.464;13.590;2023-04-24T14:31:24;17.78;43.49
71627;DHT22;59475;52.464;13.590;2023-04-24T14:33:49;17.64;45.29
71627;DHT22;59475;52.464;13.590;2023-04-24T14:36:15;17.61;45.23
71627;DHT22;59475;52.464;13.590;2023-04-24T14:38:40;17.75;46.13
71627;DHT22;59475;52.464;13.590;2023-04-24T14:41:05;17.97;44.41
71627;DHT22;59475;52.464;13.590;2023-04-24T14:43:35;17.93;42.45
71627;DHT22;59475;52.464;13.590;2023-04-24T14:46:00;17.90;42.41
71627;DHT22;59475;52.464;13.590;2023-04-24T14:48:25;18.00;43.76
71627;DHT22;59475;52.464;13.590;2023-04-24T14:50:51;18.07;44.59
71627;DHT22;59475;52.464;13.590;2023-04-24T14:53:16;17.89;44.84
71627;DHT22;59475;52.464;13.590;2023-04-24T14:55:44;17.83;46.45
71627;DHT22;59475;52.464;13.590;2023-04-24T14:58:09;17.90;46.52
71627;DHT22;59475;52.464;13.590;2023-04-24T15:00:35;17.96;44.98
71627;DHT22;59475;52.464;13.590;2023-04-24T15:03:00;17.89;45.14
71627;DHT22;59475;52.464;13.590;2023-04-24T15:05:26;17.78;45.13
71627;DHT22;59475;52.464;13.590;2023-04-24T15:07:52;17.40;44.66
71627;DHT22;59475;52.464;13.590;2023-04-24T15:10:17;17.28;45.77
71627;DHT22;59475;52.464;13.590;2023-04-24T15:12:43;17.23;45.38
71627;DHT22;59475;52.464;13.590;2023-04-24T15:15:08;17.27;45.45
71627;DHT22;59475;52.464;13.590;2023-04-24T15:17:35;17.34;45.31
71627;DHT22;59475;52.464;13.590;2023-04-24T15:20:01;17.38;46.25
71627;DHT22;59475;52.464;13.590;2023-04-24T15:22:26;17.34;46.01
71627;DHT22;59475;52.464;13.590;2023-04-24T15:24:52;17.21;46.48